Bambui, Brazil
Current Conditions -  °F | °C
As of 12:00 AM on Thursday 23 Oct 2014 (Local Time) from SBUR Reporting Station
Clear Clear  
Wind Chill: 77°   Ceiling: Unl
Heat Index: 79°   Visibility: 6mi
Dew Point: 63°   Wind: 13mph
Humidity: 61%   Direction: 60°ENE
Pressure: 30.09"   Gusts: NA
Location:  20.01°S, 45.98°W
Report Text: SBUR 230200Z 06011KT CAVOK 25/17 Q1019
Loading
Personal Weather Stations






























Interactive Weather Map
Tropical Storm Tracking
New forecast layout! Learn more

10-Day Weather Forecast

Advertisements
Track Severe Weather on mobile